Time;durP1;ratioP1;P1;durP2;ratioP2;P2;SDS_P1;SDS_P2;PMS_P1;PMS_P2;Temp;Humidity;BMP_temperature;BMP_pressure;BME280_temperature;BME280_humidity;BME280_pressure;Samples;Min_cycle;Max_cycle;Signal;HPM_P1;HPM_P2
2021/07/17 00:00:42;;;;;;;7.50;3.00;;;19.80;91.70;;;;;;5005404;28;20061;-83
2021/07/17 00:03:26;;;;;;;8.60;3.25;;;19.60;92.20;;;;;;5021995;28;20050;-83
2021/07/17 00:06:06;;;;;;;5.55;2.95;;;19.50;92.40;;;;;;4989260;28;20050;-83
2021/07/17 00:08:36;;;;;;;5.70;2.78;;;19.40;92.70;;;;;;5006346;28;20058;-84
2021/07/17 00:11:06;;;;;;;7.95;3.90;;;19.30;92.80;;;;;;5019183;28;20063;-83
2021/07/17 00:13:37;;;;;;;8.48;3.33;;;19.20;92.80;;;;;;5010577;28;20053;-83
2021/07/17 00:16:26;;;;;;;7.13;2.78;;;19.20;93.40;;;;;;5026100;28;20442;-83
2021/07/17 00:19:01;;;;;;;10.82;3.13;;;19.20;92.90;;;;;;5009376;28;20057;-83
2021/07/17 00:21:35;;;;;;;13.55;3.45;;;19.00;93.10;;;;;;5009428;28;20054;-83
2021/07/17 00:24:04;;;;;;;8.68;3.47;;;19.00;93.40;;;;;;5002126;28;20038;-83
2021/07/17 00:26:34;;;;;;;5.90;2.78;;;18.90;94.00;;;;;;5025274;28;20050;-83
2021/07/17 00:29:07;;;;;;;14.95;3.55;;;17.50;93.70;;;;;;5024255;28;20160;-82
2021/07/17 00:31:41;;;;;;;12.23;3.72;;;19.00;93.60;;;;;;5024600;28;20072;-83
2021/07/17 00:34:10;;;;;;;10.00;3.25;;;19.00;93.90;;;;;;5024890;28;20049;-83
2021/07/17 00:36:39;;;;;;;10.30;3.40;;;18.90;94.60;;;;;;5025664;28;20049;-83
2021/07/17 00:39:08;;;;;;;11.15;3.65;;;18.90;94.60;;;;;;5005638;28;20050;-83
2021/07/17 00:41:37;;;;;;;7.03;2.90;;;18.80;94.30;;;;;;5018026;28;20042;-83
2021/07/17 00:44:20;;;;;;;7.32;3.70;;;18.70;94.60;;;;;;5002044;28;20050;-83
2021/07/17 00:46:51;;;;;;;8.55;3.15;;;18.70;94.80;;;;;;5030422;28;20037;-83
2021/07/17 00:49:29;;;;;;;9.20;3.67;;;18.60;95.80;;;;;;5004032;28;20042;-83
2021/07/17 00:52:06;;;;;;;17.30;4.05;;;18.50;94.50;;;;;;4992155;28;20050;-84
2021/07/17 00:54:43;;;;;;;29.20;4.60;;;18.40;94.90;;;;;;5013146;28;20042;-84
2021/07/17 00:57:20;;;;;;;19.95;4.18;;;20.10;95.70;;;;;;5012596;28;20054;-83
2021/07/17 00:59:58;;;;;;;8.80;3.00;;;18.30;95.10;;;;;;4990192;28;20049;-83
2021/07/17 01:02:42;;;;;;;12.00;4.70;;;18.30;95.60;;;;;;4992980;28;20052;-83
2021/07/17 01:05:21;;;;;;;7.90;2.10;;;18.20;95.50;;;;;;5008143;28;20058;-83
2021/07/17 01:07:52;;;;;;;;;;;18.20;95.80;;;;;;5023940;28;20061;-83
2021/07/17 01:10:21;;;;;;;9.38;3.88;;;19.60;97.10;;;;;;5028542;28;19927;-83
2021/07/17 01:12:55;;;;;;;11.25;5.05;;;18.10;96.50;;;;;;5010644;28;20046;-83
2021/07/17 01:15:24;;;;;;;9.45;5.07;;;18.10;96.20;;;;;;5026654;28;20034;-84
2021/07/17 01:17:57;;;;;;;11.25;3.72;;;18.00;96.70;;;;;;5010622;28;20046;-82
2021/07/17 01:20:29;;;;;;;10.15;3.03;;;17.90;96.80;;;;;;5026563;28;20045;-83
2021/07/17 01:22:58;;;;;;;10.98;3.28;;;17.80;96.50;;;;;;5027635;28;20049;-84
2021/07/17 01:25:32;;;;;;;9.40;4.28;;;17.80;97.10;;;;;;5007580;28;20060;-83
2021/07/17 01:28:03;;;;;;;7.80;3.72;;;17.80;96.90;;;;;;5011187;28;20057;-83
2021/07/17 01:30:33;;;;;;;8.93;2.88;;;17.70;96.90;;;;;;4989494;28;20050;-84
2021/07/17 01:33:11;;;;;;;9.45;3.70;;;16.40;96.80;;;;;;4998543;28;20030;-83
2021/07/17 01:35:52;;;;;;;7.03;3.83;;;17.60;97.40;;;;;;5010069;28;20068;-83
2021/07/17 01:38:22;;;;;;;10.98;4.13;;;17.70;98.10;;;;;;5025452;28;20038;-83
2021/07/17 01:40:57;;;;;;;7.55;3.45;;;17.60;97.60;;;;;;5019160;28;20049;-83
2021/07/17 01:43:26;;;;;;;8.40;3.63;;;17.50;97.90;;;;;;5024225;28;20054;-83
2021/07/17 01:46:01;;;;;;;13.63;4.18;;;17.70;97.90;;;;;;5008615;28;20052;-84
2021/07/17 01:48:35;;;;;;;6.25;3.17;;;17.60;97.50;;;;;;4992951;28;20058;-83
2021/07/17 01:51:05;;;;;;;13.15;4.07;;;17.60;98.10;;;;;;5006820;28;20077;-83
2021/07/17 01:53:42;;;;;;;7.32;3.83;;;17.60;98.70;;;;;;5025963;28;20049;-83
2021/07/17 01:56:15;;;;;;;10.68;3.88;;;17.60;98.60;;;;;;5025969;28;20050;-83
2021/07/17 01:58:54;;;;;;;8.10;3.97;;;17.60;98.00;;;;;;4987551;28;20064;-83
2021/07/17 02:01:46;;;;;;;8.98;4.32;;;17.50;98.30;;;;;;4959865;28;20058;-84
2021/07/17 02:04:15;;;;;;;10.05;3.90;;;17.50;99.00;;;;;;5007602;28;20056;-83
2021/07/17 02:06:57;;;;;;;10.32;4.45;;;17.40;98.80;;;;;;5001329;28;20042;-83
2021/07/17 02:09:28;;;;;;;8.93;3.80;;;17.40;98.90;;;;;;4973483;28;20058;-83
2021/07/17 02:11:59;;;;;;;11.65;4.78;;;17.30;99.20;;;;;;5001068;28;20080;-84
2021/07/17 02:14:39;;;;;;;9.95;3.70;;;17.40;99.20;;;;;;4993540;28;20041;-83
2021/07/17 02:17:13;;;;;;;12.80;4.20;;;17.30;99.10;;;;;;5027322;28;20071;-83
2021/07/17 02:20:05;;;;;;;7.32;3.28;;;17.30;99.30;;;;;;4993791;28;20056;-83
2021/07/17 02:22:34;;;;;;;6.68;4.07;;;17.30;99.20;;;;;;4993667;28;20076;-84
2021/07/17 02:25:05;;;;;;;10.75;4.45;;;17.20;99.50;;;;;;5010345;28;20048;-83
2021/07/17 02:27:39;;;;;;;8.27;3.78;;;17.20;99.20;;;;;;5000958;28;20043;-83
2021/07/17 02:30:12;;;;;;;8.45;3.90;;;17.20;99.30;;;;;;5015844;28;20089;-83
2021/07/17 02:32:49;;;;;;;7.95;4.50;;;17.10;99.40;;;;;;5025329;28;20054;-84
2021/07/17 02:35:25;;;;;;;10.30;3.72;;;16.00;99.90;;;;;;5012636;28;20060;-84
2021/07/17 02:38:04;;;;;;;11.13;4.15;;;17.00;99.90;;;;;;5024341;28;20052;-84
2021/07/17 02:40:34;;;;;;;11.68;3.88;;;17.00;99.60;;;;;;5025357;28;20042;-84
2021/07/17 02:43:04;;;;;;;7.43;3.90;;;17.00;99.80;;;;;;5024946;28;20042;-83
2021/07/17 02:45:41;;;;;;;6.70;3.88;;;15.80;99.70;;;;;;5008635;28;20053;-83
2021/07/17 02:48:09;;;;;;;;;;;16.40;99.90;;;;;;4992118;28;20472;-83
2021/07/17 02:50:41;;;;;;;11.50;4.68;;;17.00;99.90;;;;;;4994536;28;19921;-83
2021/07/17 02:53:14;;;;;;;6.07;3.72;;;17.00;99.90;;;;;;5023193;28;20056;-83
2021/07/17 02:55:46;;;;;;;10.77;4.82;;;17.10;99.90;;;;;;5014510;28;20042;-83
2021/07/17 02:58:15;;;;;;;11.32;4.32;;;17.00;99.90;;;;;;5010957;28;20237;-83
2021/07/17 03:00:53;;;;;;;11.52;4.28;;;17.20;99.90;;;;;;5004194;28;20042;-83
2021/07/17 03:03:25;;;;;;;8.30;3.75;;;17.00;99.90;;;;;;4987310;28;20062;-84
2021/07/17 03:06:02;;;;;;;14.23;4.18;;;17.00;99.90;;;;;;5014901;28;20500;-83
2021/07/17 03:08:31;;;;;;;10.88;3.60;;;16.90;99.90;;;;;;4979597;28;20073;-84
2021/07/17 03:11:00;;;;;;;11.45;4.35;;;16.90;99.90;;;;;;5002209;28;20041;-83
2021/07/17 03:13:28;;;;;;;9.35;3.42;;;16.90;99.90;;;;;;5025226;28;20064;-83
2021/07/17 03:15:57;;;;;;;11.02;3.33;;;16.80;99.90;;;;;;5007287;28;20247;-84
2021/07/17 03:18:29;;;;;;;6.85;4.80;;;16.90;99.90;;;;;;5025167;28;20053;-83
2021/07/17 03:21:00;;;;;;;11.82;3.47;;;15.90;99.90;;;;;;5010841;28;20046;-83
2021/07/17 03:23:38;;;;;;;6.00;3.42;;;16.40;99.90;;;;;;5006189;28;20063;-84
2021/07/17 03:26:10;;;;;;;9.32;3.70;;;16.80;99.90;;;;;;5024324;28;20052;-83
2021/07/17 03:28:45;;;;;;;10.25;3.97;;;16.80;99.90;;;;;;5008339;28;20052;-85
2021/07/17 03:31:30;;;;;;;12.07;3.78;;;16.80;99.90;;;;;;5008157;28;20039;-84
2021/07/17 03:33:59;;;;;;;12.05;4.88;;;16.80;99.90;;;;;;4992101;28;20042;-85
2021/07/17 03:36:28;;;;;;;10.23;4.43;;;16.80;99.90;;;;;;5011620;28;20062;-83
2021/07/17 03:38:58;;;;;;;11.88;4.38;;;16.70;99.90;;;;;;5012555;28;20045;-84
2021/07/17 03:41:27;;;;;;;7.53;4.25;;;16.80;99.90;;;;;;4997770;28;20052;-84
2021/07/17 03:43:55;;;;;;;8.43;3.88;;;16.70;99.90;;;;;;5011933;28;20038;-83
2021/07/17 03:46:30;;;;;;;9.48;3.83;;;16.80;99.90;;;;;;5032141;28;20045;-84
2021/07/17 03:49:00;;;;;;;8.73;3.42;;;16.70;99.90;;;;;;5030991;28;20043;-83
2021/07/17 03:51:30;;;;;;;14.07;4.00;;;16.70;99.90;;;;;;5023344;28;20058;-83
2021/07/17 03:53:58;;;;;;;12.52;4.28;;;19.10;99.90;;;;;;5028896;28;20630;-83
2021/07/17 03:56:27;;;;;;;8.95;4.20;;;16.70;99.90;;;;;;5028538;28;20056;-84
2021/07/17 03:58:55;;;;;;;7.28;2.83;;;16.60;99.90;;;;;;4999502;28;20057;-83
2021/07/17 04:01:34;;;;;;;9.77;4.88;;;16.70;99.90;;;;;;5013297;28;20065;-83
2021/07/17 04:04:11;;;;;;;19.70;4.03;;;16.70;99.90;;;;;;5012859;28;20026;-83
2021/07/17 04:06:41;;;;;;;12.20;4.05;;;16.70;99.90;;;;;;5025293;28;20042;-84
2021/07/17 04:09:12;;;;;;;;;;;17.20;99.90;;;;;;4993601;28;20061;-83
2021/07/17 04:11:41;;;;;;;6.35;3.83;;;16.70;99.90;;;;;;5018551;28;19922;-84
2021/07/17 04:14:12;;;;;;;10.13;3.70;;;16.70;99.90;;;;;;5030768;28;20053;-83
2021/07/17 04:16:44;;;;;;;9.15;3.92;;;16.70;99.90;;;;;;5031076;28;20050;-84
2021/07/17 04:19:15;;;;;;;10.65;4.18;;;16.60;99.90;;;;;;5032351;28;20397;-83
2021/07/17 04:21:46;;;;;;;8.57;4.25;;;16.60;99.90;;;;;;5026567;28;20053;-84
2021/07/17 04:24:16;;;;;;;9.55;4.05;;;15.60;99.90;;;;;;5016198;28;20046;-83
2021/07/17 04:26:53;;;;;;;11.88;5.85;;;16.70;99.90;;;;;;5011704;28;20054;-84
2021/07/17 04:29:26;;;;;;;11.18;3.97;;;16.60;99.90;;;;;;5015981;28;20037;-83
2021/07/17 04:31:56;;;;;;;9.48;3.75;;;16.60;99.90;;;;;;4991562;28;20058;-82
2021/07/17 04:34:30;;;;;;;;;;;16.60;99.90;;;;;;5008889;28;20046;-83
2021/07/17 04:37:01;;;;;;;9.55;3.53;;;16.70;99.90;;;;;;5014486;28;19922;-83
2021/07/17 04:39:33;;;;;;;7.18;3.72;;;16.60;99.90;;;;;;5027282;28;20049;-84
2021/07/17 04:42:16;;;;;;;11.20;3.92;;;16.70;99.90;;;;;;5002480;28;20060;-84
2021/07/17 04:44:52;;;;;;;8.57;4.63;;;16.60;99.90;;;;;;5029467;28;20048;-83
2021/07/17 04:47:22;;;;;;;27.50;14.77;;;16.70;99.90;;;;;;5013188;28;20061;-84
2021/07/17 04:50:02;;;;;;;28.85;15.65;;;16.60;99.90;;;;;;5003807;28;20896;-83
2021/07/17 04:52:34;;;;;;;40.47;17.27;;;16.70;99.90;;;;;;5026749;28;20056;-84
2021/07/17 04:55:07;;;;;;;33.03;16.35;;;15.30;99.90;;;;;;5027364;28;20046;-83
2021/07/17 04:57:45;;;;;;;29.55;12.07;;;16.70;99.90;;;;;;5012982;28;20060;-84
2021/07/17 05:00:14;;;;;;;22.23;9.45;;;16.80;99.90;;;;;;5027477;28;20733;-84
2021/07/17 05:02:54;;;;;;;23.02;9.63;;;16.80;99.90;;;;;;5029413;28;20050;-83
2021/07/17 05:05:28;;;;;;;18.38;8.07;;;16.00;99.90;;;;;;5029323;28;20046;-84
2021/07/17 05:08:06;;;;;;;15.25;5.65;;;16.80;99.90;;;;;;5025661;28;20060;-83
2021/07/17 05:10:38;;;;;;;12.07;4.53;;;16.90;99.90;;;;;;5027331;28;20034;-83
2021/07/17 05:13:16;;;;;;;9.82;5.63;;;17.00;99.90;;;;;;5026937;28;20049;-84
2021/07/17 05:15:52;;;;;;;13.40;5.18;;;17.00;99.90;;;;;;5009179;28;20046;-84
2021/07/17 05:18:30;;;;;;;11.18;5.07;;;17.00;99.90;;;;;;5010177;28;20050;-84
2021/07/17 05:21:04;;;;;;;9.63;4.00;;;17.00;99.90;;;;;;5006898;28;20046;-84
2021/07/17 05:23:48;;;;;;;11.15;3.78;;;17.00;99.90;;;;;;5015885;28;20046;-83
2021/07/17 05:26:18;;;;;;;12.95;4.05;;;17.00;99.90;;;;;;5006647;28;20046;-84
2021/07/17 05:28:51;;;;;;;6.32;4.07;;;17.10;99.90;;;;;;5019346;28;20048;-84
2021/07/17 05:31:26;;;;;;;9.68;3.70;;;17.10;99.90;;;;;;5008732;28;20046;-84
2021/07/17 05:33:54;;;;;;;6.80;3.78;;;17.10;99.90;;;;;;5025959;28;20042;-83
2021/07/17 05:36:31;;;;;;;9.25;3.60;;;17.20;99.90;;;;;;5024372;28;20060;-84
2021/07/17 05:39:08;;;;;;;8.32;3.53;;;17.20;99.90;;;;;;5024818;28;20050;-83
2021/07/17 05:41:39;;;;;;;8.90;3.38;;;17.20;99.90;;;;;;5023927;28;20057;-83
2021/07/17 05:44:11;;;;;;;9.45;3.03;;;18.60;99.90;;;;;;5028645;28;20045;-84
2021/07/17 05:46:57;;;;;;;;;;;;;;;;;;;;;
2021/07/17 05:49:30;;;;;;;6.68;3.03;;;17.40;99.90;;;;;;5025023;28;20054;-84
2021/07/17 05:52:00;;;;;;;7.53;2.40;;;17.60;99.90;;;;;;5015213;28;20054;-84
2021/07/17 05:54:31;;;;;;;12.77;3.15;;;17.50;99.90;;;;;;5025392;28;20049;-84
2021/07/17 05:57:08;;;;;;;13.68;3.13;;;17.60;99.90;;;;;;5021865;28;20041;-83
2021/07/17 05:59:39;;;;;;;10.00;3.00;;;17.70;99.90;;;;;;5009968;28;20045;-84
2021/07/17 06:02:21;;;;;;;5.57;2.88;;;17.40;99.90;;;;;;5028422;28;20045;-83
2021/07/17 06:04:54;;;;;;;7.75;2.38;;;17.80;99.90;;;;;;5010751;28;20050;-83
2021/07/17 06:07:23;;;;;;;7.65;2.47;;;17.90;99.90;;;;;;5009573;28;20038;-83
2021/07/17 06:09:59;;;;;;;5.65;2.92;;;17.90;99.90;;;;;;5010842;28;20060;-84
2021/07/17 06:12:39;;;;;;;3.42;2.17;;;17.90;99.90;;;;;;5027384;28;20055;-84
2021/07/17 06:15:08;;;;;;;4.28;2.22;;;18.10;99.90;;;;;;4992057;28;20050;-83
2021/07/17 06:17:49;;;;;;;8.70;2.67;;;18.10;99.70;;;;;;5002571;28;20053;-83
2021/07/17 06:20:21;;;;;;;8.17;2.77;;;18.10;99.70;;;;;;4993725;28;20350;-83
2021/07/17 06:22:54;;;;;;;14.65;3.10;;;18.20;99.80;;;;;;4995797;28;20286;-83
2021/07/17 06:25:22;;;;;;;3.13;1.67;;;17.70;99.90;;;;;;5017231;28;20056;-83
2021/07/17 06:28:00;;;;;;;5.75;2.13;;;18.30;99.90;;;;;;5008780;28;20049;-84
2021/07/17 06:30:34;;;;;;;2.67;1.67;;;18.40;99.80;;;;;;5024037;28;20050;-84
2021/07/17 06:33:07;;;;;;;9.55;2.33;;;18.40;99.50;;;;;;5023529;28;20046;-84
2021/07/17 06:35:38;;;;;;;5.65;2.00;;;17.70;99.80;;;;;;4987901;28;20057;-84
2021/07/17 06:38:10;;;;;;;6.95;2.00;;;18.40;99.10;;;;;;4987397;28;20057;-84
2021/07/17 06:40:39;;;;;;;;;;;18.60;99.20;;;;;;5007401;28;20050;-84
2021/07/17 06:43:12;;;;;;;6.32;1.98;;;18.90;98.80;;;;;;5024530;28;20073;-84
2021/07/17 06:45:41;;;;;;;8.68;2.97;;;19.00;99.10;;;;;;5026491;28;20042;-85
2021/07/17 06:48:15;;;;;;;4.60;2.33;;;18.80;98.70;;;;;;5043350;28;20562;-85
2021/07/17 06:50:49;;;;;;;7.45;2.03;;;18.80;98.50;;;;;;5002756;28;20060;-82
2021/07/17 06:53:21;;;;;;;4.25;1.77;;;18.80;98.50;;;;;;5035149;28;20054;-84
2021/07/17 06:55:52;;;;;;;5.32;2.38;;;18.90;98.70;;;;;;4998692;28;20057;-85
2021/07/17 06:58:26;;;;;;;8.30;1.88;;;19.00;99.00;;;;;;5010792;28;20050;-83
2021/07/17 07:01:33;;;;;;;4.25;1.98;;;19.00;98.70;;;;;;5003093;28;20061;-83
2021/07/17 07:04:10;;;;;;;5.35;1.45;;;19.10;98.60;;;;;;5005777;28;20348;-84
2021/07/17 07:06:41;;;;;;;6.75;2.20;;;18.30;98.40;;;;;;5011544;28;20052;-85
2021/07/17 07:09:13;;;;;;;5.13;1.50;;;19.60;98.40;;;;;;5012310;28;20472;-84
2021/07/17 07:11:42;;;;;;;9.68;2.42;;;19.30;98.50;;;;;;5029846;28;20048;-84
2021/07/17 07:14:12;;;;;;;5.95;1.80;;;19.30;98.50;;;;;;5012456;28;20053;-84
2021/07/17 07:16:41;;;;;;;3.60;1.30;;;19.40;98.40;;;;;;5011195;28;20046;-84
2021/07/17 07:19:12;;;;;;;7.47;1.87;;;19.50;98.10;;;;;;4993282;28;20054;-84
2021/07/17 07:21:41;;;;;;;5.93;1.65;;;19.50;97.60;;;;;;5011043;28;20042;-84
2021/07/17 07:24:11;;;;;;;;;;;19.60;97.60;;;;;;5012384;28;20050;-84
2021/07/17 07:26:58;;;;;;;5.55;1.98;;;19.60;97.60;;;;;;4993064;28;19909;-84
2021/07/17 07:29:27;;;;;;;9.98;1.85;;;19.70;97.70;;;;;;5025583;28;20046;-82
2021/07/17 07:31:55;;;;;;;4.18;1.50;;;19.80;97.70;;;;;;4963612;28;20060;-83
2021/07/17 07:34:30;;;;;;;3.88;1.80;;;19.80;97.80;;;;;;5030303;28;20056;-83
2021/07/17 07:37:03;;;;;;;9.63;1.98;;;19.50;97.90;;;;;;5013608;28;20038;-84
2021/07/17 07:39:33;;;;;;;7.07;1.95;;;19.90;98.30;;;;;;5016327;28;20060;-83
2021/07/17 07:42:02;;;;;;;5.97;2.03;;;20.00;97.90;;;;;;4999961;28;20040;-83
2021/07/17 07:44:31;;;;;;;3.60;2.15;;;20.00;97.60;;;;;;4998827;28;20046;-84
2021/07/17 07:47:00;;;;;;;7.57;2.03;;;20.10;97.60;;;;;;5030923;28;20060;-84
2021/07/17 07:49:29;;;;;;;5.53;1.70;;;20.10;97.60;;;;;;5011876;28;20052;-83
2021/07/17 07:52:02;;;;;;;8.15;2.35;;;20.00;97.80;;;;;;5029222;28;20050;-83
2021/07/17 07:54:33;;;;;;;4.40;1.83;;;20.20;97.70;;;;;;5002348;28;20042;-83
2021/07/17 07:57:02;;;;;;;3.78;1.67;;;20.30;97.40;;;;;;5014386;28;20039;-83
2021/07/17 07:59:38;;;;;;;5.80;2.63;;;20.40;97.10;;;;;;4997446;28;20053;-83
2021/07/17 08:02:11;;;;;;;9.40;2.20;;;21.20;97.50;;;;;;5027137;28;20050;-84
2021/07/17 08:04:44;;;;;;;6.20;1.85;;;20.40;97.50;;;;;;4977011;28;20054;-84
2021/07/17 08:07:16;;;;;;;3.90;1.85;;;20.50;97.30;;;;;;4998992;28;20039;-83
2021/07/17 08:09:46;;;;;;;4.25;2.25;;;20.50;97.00;;;;;;5024309;28;20057;-83
2021/07/17 08:12:20;;;;;;;7.05;1.77;;;19.40;96.60;;;;;;5000407;28;20040;-84
2021/07/17 08:14:57;;;;;;;5.00;1.65;;;20.70;97.10;;;;;;5010744;28;20049;-84
2021/07/17 08:17:26;;;;;;;8.18;1.98;;;20.70;97.00;;;;;;4994653;28;20038;-84
2021/07/17 08:19:57;;;;;;;3.47;1.80;;;20.70;97.30;;;;;;5012870;28;20519;-83
2021/07/17 08:22:40;;;;;;;10.57;2.22;;;20.80;97.50;;;;;;4995758;28;20049;-83
2021/07/17 08:25:10;;;;;;;4.65;2.00;;;20.80;96.50;;;;;;5004924;28;20054;-83
2021/07/17 08:27:42;;;;;;;6.82;2.28;;;20.90;96.60;;;;;;5006187;28;20048;-84
2021/07/17 08:30:15;;;;;;;6.82;2.33;;;21.00;97.30;;;;;;5032783;28;20052;-84
2021/07/17 08:32:55;;;;;;;5.45;1.58;;;21.00;96.50;;;;;;5030669;28;20056;-83
2021/07/17 08:35:27;;;;;;;4.28;2.03;;;21.10;96.40;;;;;;4985256;28;20384;-83
2021/07/17 08:37:55;;;;;;;6.30;1.95;;;21.20;97.10;;;;;;5014169;28;20060;-84
2021/07/17 08:40:28;;;;;;;5.72;1.95;;;21.20;96.50;;;;;;4971854;28;20065;-85
2021/07/17 08:43:01;;;;;;;5.65;2.08;;;21.30;96.30;;;;;;5010009;28;20046;-84
2021/07/17 08:45:35;;;;;;;2.00;1.20;;;21.40;95.80;;;;;;5025495;28;20050;-84
2021/07/17 08:48:07;;;;;;;9.23;2.00;;;21.50;95.70;;;;;;5009846;28;20044;-83
2021/07/17 08:50:42;;;;;;;9.02;1.73;;;21.70;95.70;;;;;;4999490;28;20290;-85
2021/07/17 08:53:21;;;;;;;6.87;2.37;;;21.60;95.60;;;;;;4990226;28;20045;-83
2021/07/17 08:55:51;;;;;;;7.22;2.17;;;21.70;95.60;;;;;;5007187;28;20038;-83
2021/07/17 08:58:28;;;;;;;4.75;1.98;;;21.70;95.50;;;;;;5009585;28;20038;-82
2021/07/17 09:01:19;;;;;;;4.97;2.00;;;21.80;95.20;;;;;;5016068;28;20053;-84
2021/07/17 09:03:50;;;;;;;5.05;1.77;;;21.90;95.80;;;;;;5010729;28;20234;-83
2021/07/17 09:06:20;;;;;;;;;;;22.00;95.40;;;;;;5012523;28;20053;-84
2021/07/17 09:08:55;;;;;;;6.03;1.92;;;22.00;94.90;;;;;;4996056;28;19921;-83
2021/07/17 09:11:41;;;;;;;6.53;1.95;;;22.10;95.00;;;;;;5017774;28;20059;-84
2021/07/17 09:14:34;;;;;;;6.63;2.55;;;22.20;94.80;;;;;;4996272;28;20174;-84
2021/07/17 09:17:06;;;;;;;7.75;2.85;;;22.20;94.30;;;;;;5031783;28;20204;-86
2021/07/17 09:19:52;;;;;;;5.07;2.00;;;22.30;94.70;;;;;;5020466;28;20088;-83
2021/07/17 09:22:36;;;;;;;7.20;2.28;;;21.60;94.40;;;;;;4993010;28;20203;-83
2021/07/17 09:25:24;;;;;;;6.25;2.17;;;22.20;94.70;;;;;;5010059;28;20052;-83
2021/07/17 09:28:17;;;;;;;5.15;2.20;;;22.50;94.40;;;;;;4998121;28;20224;-83
2021/07/17 09:30:59;;;;;;;6.40;2.00;;;22.60;94.30;;;;;;5009837;28;20052;-84
2021/07/17 09:33:33;;;;;;;7.35;1.95;;;22.60;94.60;;;;;;5017691;28;20045;-84
2021/07/17 09:36:05;;;;;;;6.38;2.08;;;22.70;94.50;;;;;;5027065;28;20057;-83
2021/07/17 09:38:34;;;;;;;4.78;1.98;;;22.80;94.30;;;;;;5000939;28;20050;-84
2021/07/17 09:41:11;;;;;;;7.65;2.03;;;22.90;94.00;;;;;;5014641;28;20040;-86
2021/07/17 09:43:44;;;;;;;3.75;2.28;;;23.00;94.20;;;;;;4984418;28;20053;-85
2021/07/17 09:46:22;;;;;;;9.27;1.92;;;23.10;94.10;;;;;;5004899;28;20056;-83
2021/07/17 09:48:56;;;;;;;5.22;1.52;;;22.00;93.40;;;;;;5039966;28;20041;-84
2021/07/17 09:51:31;;;;;;;6.25;2.15;;;22.80;93.80;;;;;;5015498;28;20053;-82
2021/07/17 09:54:05;;;;;;;8.60;2.53;;;23.40;93.60;;;;;;5011736;28;20042;-83
2021/07/17 09:56:40;;;;;;;8.00;2.25;;;23.40;93.60;;;;;;5022263;28;20049;-84
2021/07/17 09:59:12;;;;;;;3.22;2.00;;;23.50;93.80;;;;;;4979807;28;20052;-84
2021/07/17 10:01:51;;;;;;;9.18;2.17;;;23.60;93.60;;;;;;5023098;28;20073;-83
2021/07/17 10:04:22;;;;;;;5.53;2.15;;;23.70;93.50;;;;;;5009653;28;20041;-83
2021/07/17 10:07:08;;;;;;;6.90;1.73;;;23.70;93.50;;;;;;5021135;28;20053;-84
2021/07/17 10:09:42;;;;;;;4.15;2.05;;;23.80;93.10;;;;;;5052516;28;20059;-83
2021/07/17 10:12:13;;;;;;;5.75;1.90;;;23.90;93.20;;;;;;5037208;28;20055;-84
2021/07/17 10:14:43;;;;;;;7.68;1.80;;;24.00;93.10;;;;;;5043921;28;20053;-83
2021/07/17 10:17:15;;;;;;;8.80;1.92;;;24.00;92.90;;;;;;5026559;28;20053;-83
2021/07/17 10:19:44;;;;;;;10.90;2.20;;;24.10;93.10;;;;;;5024953;28;20059;-84
2021/07/17 10:22:16;;;;;;;3.85;1.80;;;24.30;93.00;;;;;;5025453;28;20056;-84
2021/07/17 10:24:58;;;;;;;4.00;1.67;;;24.40;92.70;;;;;;5044323;28;20042;-84
2021/07/17 10:27:28;;;;;;;8.20;1.73;;;24.50;93.10;;;;;;5028167;28;20037;-83
2021/07/17 10:30:08;;;;;;;5.25;1.65;;;24.60;93.00;;;;;;5043342;28;20041;-84
2021/07/17 10:32:56;;;;;;;2.97;1.48;;;24.60;92.20;;;;;;5045035;28;20060;-83
2021/07/17 10:35:26;;;;;;;3.78;1.60;;;24.40;92.20;;;;;;5043773;28;20192;-83
2021/07/17 10:38:01;;;;;;;5.90;2.47;;;24.80;92.30;;;;;;5041284;28;20476;-83
2021/07/17 10:40:34;;;;;;;3.65;2.10;;;24.90;92.20;;;;;;5019076;28;20052;-83
2021/07/17 10:43:06;;;;;;;5.10;1.77;;;25.00;92.00;;;;;;5055384;28;20053;-85
2021/07/17 10:45:54;;;;;;;3.40;1.73;;;25.00;91.80;;;;;;5059893;28;20050;-83
2021/07/17 10:48:37;;;;;;;3.53;1.52;;;25.10;92.00;;;;;;5036441;28;20056;-83
2021/07/17 10:51:22;;;;;;;3.13;1.95;;;25.20;92.20;;;;;;5026629;28;20042;-83
2021/07/17 10:54:01;;;;;;;5.03;1.80;;;25.20;91.60;;;;;;5045271;28;20033;-82
2021/07/17 10:56:35;;;;;;;5.97;1.38;;;25.30;91.60;;;;;;5005570;28;20034;-83
2021/07/17 10:59:26;;;;;;;3.25;1.42;;;25.40;91.50;;;;;;5042637;28;20067;-82
2021/07/17 11:02:01;;;;;;;10.50;1.85;;;24.80;91.70;;;;;;5042331;28;20053;-84
2021/07/17 11:04:49;;;;;;;3.70;1.42;;;25.60;91.20;;;;;;5039481;28;20063;-83
2021/07/17 11:07:21;;;;;;;2.42;1.35;;;25.70;90.70;;;;;;5035301;28;20049;-82
2021/07/17 11:09:57;;;;;;;8.38;1.55;;;25.80;91.30;;;;;;5037983;28;20058;-83
2021/07/17 11:12:29;;;;;;;10.40;3.38;;;25.80;90.80;;;;;;4984951;28;20046;-83
2021/07/17 11:15:06;;;;;;;8.57;1.67;;;25.80;91.10;;;;;;5036018;28;20164;-84
2021/07/17 11:17:50;;;;;;;5.38;1.92;;;25.90;91.30;;;;;;5013094;28;20041;-85
2021/07/17 11:20:36;;;;;;;7.63;1.80;;;25.90;90.90;;;;;;5022842;28;20053;-85
2021/07/17 11:23:16;;;;;;;5.50;1.42;;;26.10;91.20;;;;;;5022748;28;20041;-83
2021/07/17 11:26:01;;;;;;;6.88;1.80;;;26.10;90.70;;;;;;5030829;28;20061;-84
2021/07/17 11:31:51;;;;;;;14.57;2.45;;;26.30;90.20;;;;;;5005268;28;20053;-84
2021/07/17 11:34:29;;;;;;;3.50;1.30;;;26.80;89.60;;;;;;5040028;28;20064;-84
2021/07/17 11:37:09;;;;;;;4.10;1.50;;;26.50;90.10;;;;;;5038415;28;20064;-84
2021/07/17 11:39:45;;;;;;;3.60;1.25;;;26.60;90.00;;;;;;5023452;28;20041;-83
2021/07/17 11:42:21;;;;;;;5.88;1.58;;;25.70;89.00;;;;;;5025101;28;20037;-83
2021/07/17 11:44:58;;;;;;;6.78;3.10;;;26.00;89.40;;;;;;5016904;28;20049;-82
2021/07/17 11:47:30;;;;;;;3.28;1.40;;;26.90;90.10;;;;;;5021776;28;20041;-84
2021/07/17 11:50:03;;;;;;;8.63;1.40;;;27.00;89.60;;;;;;5012039;23;20311;-86
2021/07/17 11:52:37;;;;;;;4.82;1.75;;;27.10;88.80;;;;;;4978697;28;20490;-88
2021/07/17 11:55:12;;;;;;;6.53;1.77;;;27.30;88.80;;;;;;4985390;28;20053;-85
2021/07/17 11:57:44;;;;;;;4.95;1.30;;;27.40;88.40;;;;;;4980486;28;20046;-87
2021/07/17 12:00:17;;;;;;;3.15;1.58;;;27.50;87.60;;;;;;4963243;28;20053;-86
2021/07/17 12:02:56;;;;;;;5.00;1.88;;;27.50;87.00;;;;;;4979760;28;20046;-86
2021/07/17 12:05:27;;;;;;;7.85;1.50;;;27.50;86.90;;;;;;4981940;28;20038;-86
2021/07/17 12:07:55;;;;;;;5.05;1.90;;;27.60;87.00;;;;;;4999131;28;20054;-87
2021/07/17 12:10:26;;;;;;;3.50;1.35;;;27.60;86.60;;;;;;4984065;28;20039;-84
2021/07/17 12:13:00;;;;;;;10.00;2.78;;;27.60;86.70;;;;;;4988367;28;20050;-88
2021/07/17 12:15:34;;;;;;;6.43;1.30;;;27.70;86.50;;;;;;4985166;28;20066;-87
2021/07/17 12:18:10;;;;;;;8.52;1.65;;;27.80;86.40;;;;;;4982572;28;20046;-87
2021/07/17 12:20:52;;;;;;;2.97;1.60;;;27.90;86.40;;;;;;4965368;28;20081;-86
2021/07/17 12:23:24;;;;;;;4.07;1.90;;;27.90;85.90;;;;;;4998537;28;20513;-86
2021/07/17 12:25:59;;;;;;;7.22;2.78;;;28.00;85.80;;;;;;4981654;28;20046;-86
2021/07/17 12:28:36;;;;;;;5.85;1.73;;;28.10;84.40;;;;;;5010965;28;20490;-85
2021/07/17 12:31:10;;;;;;;2.53;1.40;;;28.20;84.80;;;;;;5004908;28;20042;-85
2021/07/17 12:33:40;;;;;;;4.38;1.83;;;28.20;84.70;;;;;;4988228;28;20046;-86
2021/07/17 12:36:18;;;;;;;3.85;1.95;;;28.30;84.70;;;;;;4974777;28;20050;-86
2021/07/17 12:38:50;;;;;;;5.60;1.58;;;28.30;84.80;;;;;;4982008;28;20518;-86
2021/07/17 12:41:24;;;;;;;4.03;2.20;;;28.50;84.80;;;;;;4994350;28;20058;-86
2021/07/17 12:44:05;;;;;;;7.10;1.98;;;28.60;84.00;;;;;;4981732;28;20588;-86
2021/07/17 12:46:38;;;;;;;6.93;2.25;;;28.70;84.00;;;;;;4945519;28;20066;-87
2021/07/17 12:49:13;;;;;;;5.03;1.77;;;28.80;83.50;;;;;;4962465;28;20484;-87
2021/07/17 12:51:50;;;;;;;5.13;1.58;;;28.90;82.90;;;;;;4956296;28;20057;-84
2021/07/17 12:54:28;;;;;;;5.60;1.92;;;29.00;83.10;;;;;;4984290;28;20042;-92
2021/07/17 12:57:06;;;;;;;2.47;1.45;;;29.10;82.70;;;;;;5021596;28;20076;-92
2021/07/17 12:59:48;;;;;;;5.70;2.42;;;29.00;81.60;;;;;;4998188;28;20054;-92
2021/07/17 13:02:19;;;;;;;6.25;2.28;;;29.00;82.40;;;;;;4982824;28;20060;-88
2021/07/17 13:04:50;;;;;;;3.92;1.65;;;29.00;82.60;;;;;;4986371;28;20069;-90
2021/07/17 13:07:35;;;;;;;6.72;1.70;;;29.10;82.70;;;;;;4993747;28;20049;-88
2021/07/17 13:10:07;;;;;;;4.05;1.63;;;29.30;82.50;;;;;;5001308;28;20686;-88
2021/07/17 13:12:36;;;;;;;5.40;1.77;;;29.30;82.40;;;;;;4988704;28;20437;-89
2021/07/17 13:15:07;;;;;;;;;;;29.50;82.10;;;;;;5025229;28;20045;-89
2021/07/17 13:17:35;;;;;;;6.07;1.88;;;29.60;81.00;;;;;;4987970;28;19921;-90
2021/07/17 13:20:09;;;;;;;3.90;1.60;;;29.70;81.90;;;;;;4998957;28;20058;-88
2021/07/17 13:22:40;;;;;;;5.35;1.55;;;29.40;81.10;;;;;;5016946;28;20042;-89
2021/07/17 13:25:23;;;;;;;2.50;1.50;;;29.90;81.00;;;;;;5001327;28;20468;-88
2021/07/17 13:28:02;;;;;;;8.02;2.22;;;30.00;80.70;;;;;;4982304;28;20539;-89